Time;durP1;ratioP1;P1;durP2;ratioP2;P2;SDS_P1;SDS_P2;PMS_P1;PMS_P2;Temp;Humidity;BMP_temperature;BMP_pressure;BME280_temperature;BME280_humidity;BME280_pressure;Samples;Min_cycle;Max_cycle;Signal;HPM_P1;HPM_P2
2022/04/22 00:01:46;;;;;;;9.18;6.32;;;14.10;99.50;;;;;;5071208;28;20478;-56
2022/04/22 00:04:12;;;;;;;12.60;6.40;;;14.10;99.60;;;;;;5072548;28;20023;-56
2022/04/22 00:06:37;;;;;;;9.00;5.85;;;14.10;99.40;;;;;;5073272;28;20028;-58
2022/04/22 00:09:03;;;;;;;10.02;6.20;;;14.10;99.30;;;;;;5072894;28;20027;-56
2022/04/22 00:11:29;;;;;;;10.73;5.47;;;14.10;99.30;;;;;;5073037;28;20024;-57
2022/04/22 00:13:56;;;;;;;9.27;5.93;;;14.00;99.50;;;;;;5073759;28;20075;-57
2022/04/22 00:16:21;;;;;;;8.38;5.75;;;14.00;99.30;;;;;;5072563;28;20033;-56
2022/04/22 00:18:47;;;;;;;10.48;5.68;;;14.00;99.60;;;;;;5072348;28;20404;-56
2022/04/22 00:21:13;;;;;;;7.45;5.63;;;14.00;99.40;;;;;;5071733;28;20120;-56
2022/04/22 00:23:39;;;;;;;6.53;5.78;;;14.00;99.20;;;;;;5071869;28;20024;-56
2022/04/22 00:26:05;;;;;;;10.88;6.18;;;14.00;99.10;;;;;;5072379;28;20025;-56
2022/04/22 00:28:30;;;;;;;9.57;6.00;;;14.00;99.00;;;;;;5072492;28;20870;-56
2022/04/22 00:30:56;;;;;;;7.85;5.32;;;14.00;99.00;;;;;;5071202;28;20417;-56
2022/04/22 00:33:22;;;;;;;9.27;5.43;;;13.90;99.10;;;;;;5072608;28;20053;-56
2022/04/22 00:35:48;;;;;;;7.85;5.65;;;13.90;98.90;;;;;;5072423;28;20111;-56
2022/04/22 00:38:14;;;;;;;11.43;5.57;;;13.90;98.90;;;;;;5071174;28;20039;-60
2022/04/22 00:40:40;;;;;;;8.68;5.72;;;14.00;98.70;;;;;;5071424;28;20107;-57
2022/04/22 00:43:23;;;;;;;9.48;5.70;;;14.00;98.60;;;;;;5070094;28;20472;-56
2022/04/22 00:45:50;;;;;;;;;;;13.90;98.60;;;;;;5073646;28;20028;-57
2022/04/22 00:48:17;;;;;;;7.32;5.22;;;13.80;98.80;;;;;;5072873;28;19995;-56
2022/04/22 00:50:43;;;;;;;9.10;5.28;;;13.80;98.90;;;;;;5072810;28;20129;-56
2022/04/22 00:53:09;;;;;;;6.05;5.45;;;13.70;99.00;;;;;;5073176;28;20432;-56
2022/04/22 00:55:41;;;;;;;10.57;5.60;;;13.70;99.10;;;;;;5072107;28;20032;-57
2022/04/22 00:58:07;;;;;;;7.38;5.63;;;13.70;99.00;;;;;;5072497;28;20116;-56
2022/04/22 01:00:33;;;;;;;8.68;5.75;;;13.70;98.80;;;;;;5071551;28;20082;-56
2022/04/22 01:02:59;;;;;;;8.90;5.53;;;13.60;98.90;;;;;;5070503;28;20033;-56
2022/04/22 01:10:55;;;;;;;7.07;5.68;;;13.30;99.90;;;;;;5071978;28;20031;-56
2022/04/22 01:13:21;;;;;;;8.55;5.75;;;13.20;99.90;;;;;;5072265;28;20028;-56
2022/04/22 01:15:47;;;;;;;9.13;6.57;;;13.00;99.90;;;;;;5072644;28;20039;-55
2022/04/22 01:18:14;;;;;;;9.55;6.30;;;12.90;99.90;;;;;;5072453;28;20054;-56
2022/04/22 01:20:40;;;;;;;13.27;5.78;;;12.80;99.90;;;;;;5072224;28;20040;-56
2022/04/22 01:23:06;;;;;;;9.65;5.80;;;12.80;99.90;;;;;;5072358;28;20048;-56
2022/04/22 01:25:35;;;;;;;7.15;5.75;;;12.70;99.90;;;;;;5072184;28;20051;-56
2022/04/22 01:28:02;;;;;;;7.53;5.80;;;12.60;99.90;;;;;;5072190;28;20432;-55
2022/04/22 01:30:29;;;;;;;10.20;6.25;;;12.50;99.90;;;;;;5071502;28;20464;-55
2022/04/22 01:32:56;;;;;;;7.15;6.00;;;12.40;99.90;;;;;;5071891;28;20072;-55
2022/04/22 01:35:23;;;;;;;8.65;5.68;;;12.40;99.90;;;;;;5072281;28;20039;-56
2022/04/22 01:37:48;;;;;;;8.70;6.30;;;12.40;99.90;;;;;;5072550;28;20025;-55
2022/04/22 01:40:15;;;;;;;13.07;5.85;;;12.30;99.90;;;;;;5073878;28;20527;-55
2022/04/22 01:42:42;;;;;;;9.98;5.95;;;12.20;99.90;;;;;;5075865;28;20236;-56
2022/04/22 01:45:09;;;;;;;10.10;6.47;;;12.10;99.90;;;;;;5076114;28;20029;-56
2022/04/22 01:47:35;;;;;;;8.43;6.30;;;12.10;99.90;;;;;;5075890;28;20043;-56
2022/04/22 01:50:02;;;;;;;10.88;5.95;;;12.00;99.90;;;;;;5076158;28;20066;-56
2022/04/22 01:52:28;;;;;;;9.65;6.63;;;12.00;99.90;;;;;;5076257;28;20017;-56
2022/04/22 01:54:55;;;;;;;9.35;6.15;;;12.00;99.90;;;;;;5076261;28;20454;-56
2022/04/22 01:57:21;;;;;;;11.32;6.47;;;11.90;99.90;;;;;;5075813;28;20029;-56
2022/04/22 01:59:48;;;;;;;11.40;6.95;;;11.90;99.90;;;;;;5075612;28;20039;-56
2022/04/22 02:02:15;;;;;;;9.02;6.82;;;11.80;99.90;;;;;;5076311;28;20220;-55
2022/04/22 02:04:41;;;;;;;10.45;6.80;;;11.80;99.90;;;;;;5075954;28;20048;-55
2022/04/22 02:07:07;;;;;;;9.80;7.07;;;11.70;99.90;;;;;;5076026;28;20032;-56
2022/04/22 02:09:32;;;;;;;11.50;6.72;;;11.70;99.90;;;;;;5075988;28;20527;-56
2022/04/22 02:11:58;;;;;;;12.65;6.88;;;11.70;99.90;;;;;;5076090;28;20032;-55
2022/04/22 02:14:25;;;;;;;11.27;7.18;;;11.70;99.90;;;;;;5075746;28;20036;-55
2022/04/22 02:16:51;;;;;;;11.25;7.18;;;11.70;99.90;;;;;;5075784;28;20020;-56
2022/04/22 02:19:17;;;;;;;9.52;7.20;;;11.70;99.90;;;;;;5076153;28;20525;-56
2022/04/22 02:21:43;;;;;;;11.05;7.43;;;11.70;99.90;;;;;;5076051;28;20024;-55
2022/04/22 02:24:09;;;;;;;8.90;7.28;;;11.60;99.90;;;;;;5074822;28;20059;-55
2022/04/22 02:29:22;;;;;;;12.70;8.65;;;11.50;99.90;;;;;;5074517;28;20783;-55
2022/04/22 02:31:52;;;;;;;11.77;7.35;;;11.50;99.90;;;;;;5073937;28;20023;-55
2022/04/22 02:34:21;;;;;;;11.80;8.23;;;11.40;99.90;;;;;;5074485;28;20045;-56
2022/04/22 02:36:48;;;;;;;15.60;8.15;;;11.30;99.90;;;;;;5075096;28;20051;-57
2022/04/22 02:39:14;;;;;;;11.00;7.85;;;11.40;99.90;;;;;;5074798;28;20016;-55
2022/04/22 02:47:08;;;;;;;10.40;8.43;;;11.50;99.90;;;;;;5075044;28;20062;-55
2022/04/22 02:49:34;;;;;;;11.32;8.82;;;11.50;99.90;;;;;;5073023;28;20474;-55
2022/04/22 02:51:59;;;;;;;15.05;8.40;;;11.30;99.90;;;;;;5074027;28;20031;-55
2022/04/22 02:54:26;;;;;;;13.85;8.75;;;11.20;99.90;;;;;;5074920;28;20024;-61
2022/04/22 02:56:52;;;;;;;14.25;9.60;;;11.20;99.90;;;;;;5072760;28;20028;-55
2022/04/22 02:59:19;;;;;;;13.85;9.50;;;11.10;99.90;;;;;;5074043;28;20311;-56
2022/04/22 03:01:45;;;;;;;11.55;9.40;;;11.00;99.90;;;;;;5074581;28;20021;-58
2022/04/22 03:04:11;;;;;;;15.07;9.55;;;11.10;99.90;;;;;;5073439;28;20516;-56
2022/04/22 03:06:37;;;;;;;13.77;10.02;;;11.00;99.90;;;;;;5073982;28;20020;-56
2022/04/22 03:09:03;;;;;;;13.25;9.55;;;10.90;99.90;;;;;;5074088;28;20443;-56
2022/04/22 03:11:29;;;;;;;17.00;10.40;;;10.90;99.90;;;;;;5073575;28;20198;-56
2022/04/22 03:13:54;;;;;;;18.60;10.55;;;10.90;99.90;;;;;;5074190;28;20119;-57
2022/04/22 03:16:23;;;;;;;12.25;9.82;;;10.90;99.90;;;;;;5072954;28;20024;-56
2022/04/22 03:18:49;;;;;;;13.05;10.32;;;11.00;99.90;;;;;;5074350;28;20640;-55
2022/04/22 03:21:19;;;;;;;17.67;11.13;;;10.90;99.90;;;;;;5072497;28;20115;-56
2022/04/22 03:23:44;;;;;;;16.08;11.20;;;10.90;99.90;;;;;;5074448;28;20071;-55
2022/04/22 03:26:10;;;;;;;19.50;11.10;;;10.90;99.90;;;;;;5089881;28;20024;-55
2022/04/22 03:28:36;;;;;;;19.95;11.90;;;10.80;99.90;;;;;;5073811;28;20128;-55
2022/04/22 03:31:01;;;;;;;14.95;10.90;;;10.80;99.90;;;;;;5074458;28;20489;-55
2022/04/22 03:33:27;;;;;;;15.30;11.15;;;10.70;99.90;;;;;;5073936;28;20048;-55
2022/04/22 03:35:53;;;;;;;22.45;12.48;;;10.70;99.90;;;;;;5074178;28;20025;-55
2022/04/22 03:38:20;;;;;;;16.98;11.50;;;10.60;99.90;;;;;;5072302;28;20024;-55
2022/04/22 03:40:47;;;;;;;25.00;12.48;;;10.60;99.90;;;;;;5073609;28;20103;-56
2022/04/22 03:43:13;;;;;;;15.10;11.85;;;10.60;99.90;;;;;;5072758;28;20020;-55
2022/04/22 03:45:39;;;;;;;17.55;13.27;;;10.80;99.90;;;;;;5074275;28;20086;-55
2022/04/22 03:48:08;;;;;;;16.35;13.00;;;10.70;99.90;;;;;;5074298;28;20485;-56
2022/04/22 03:50:36;;;;;;;20.08;12.90;;;10.60;99.90;;;;;;5072896;28;20054;-56
2022/04/22 03:53:05;;;;;;;18.30;12.73;;;10.60;99.90;;;;;;5074593;28;20032;-55
2022/04/22 03:55:31;;;;;;;23.25;14.40;;;10.50;99.90;;;;;;5074413;28;20409;-55
2022/04/22 03:58:12;;;;;;;16.60;13.32;;;10.40;99.90;;;;;;5074383;28;20032;-55
2022/04/22 04:00:41;;;;;;;17.67;13.95;;;10.30;99.90;;;;;;5073580;28;20017;-55
2022/04/22 04:03:11;;;;;;;17.90;13.57;;;10.30;99.90;;;;;;5073614;28;20429;-56
2022/04/22 04:05:38;;;;;;;19.67;13.93;;;10.30;99.90;;;;;;5074091;28;20431;-55
2022/04/22 04:08:05;;;;;;;18.92;14.93;;;10.20;99.90;;;;;;5074196;28;20069;-55
2022/04/22 04:16:00;;;;;;;21.08;13.68;;;10.00;99.90;;;;;;5073396;28;20421;-55
2022/04/22 04:18:33;;;;;;;18.92;14.95;;;10.00;99.90;;;;;;5074544;28;20474;-55
2022/04/22 04:23:44;;;;;;;22.10;15.45;;;10.20;99.90;;;;;;5074060;28;20401;-55
2022/04/22 04:26:11;;;;;;;24.63;15.82;;;10.20;99.90;;;;;;5072803;28;20024;-55
2022/04/22 04:28:38;;;;;;;20.88;16.08;;;10.20;99.90;;;;;;5072771;28;20020;-56
2022/04/22 04:31:05;;;;;;;23.45;16.15;;;10.10;99.90;;;;;;5073293;28;20031;-56
2022/04/22 04:33:31;;;;;;;28.05;16.60;;;10.20;99.90;;;;;;5073090;28;20058;-55
2022/04/22 04:35:58;;;;;;;21.83;16.38;;;10.10;99.90;;;;;;5072819;28;20024;-56
2022/04/22 04:38:24;;;;;;;22.27;15.90;;;10.10;99.90;;;;;;5073694;28;20169;-57
2022/04/22 04:40:51;;;;;;;27.13;17.27;;;10.00;99.90;;;;;;5072329;28;20025;-57
2022/04/22 04:43:18;;;;;;;22.05;15.80;;;10.00;99.90;;;;;;5073130;28;20099;-56
2022/04/22 04:45:45;;;;;;;23.92;16.65;;;9.90;99.90;;;;;;5072721;28;20047;-56
2022/04/22 04:48:14;;;;;;;23.35;17.65;;;9.90;99.90;;;;;;5073010;28;20361;-56
2022/04/22 04:50:51;;;;;;;24.02;17.75;;;9.90;99.90;;;;;;5072350;28;20115;-56
2022/04/22 04:53:19;;;;;;;21.67;17.25;;;9.90;99.90;;;;;;5071762;28;20443;-56
2022/04/22 04:55:48;;;;;;;34.72;18.17;;;9.90;99.90;;;;;;5073055;28;20044;-56
2022/04/22 04:58:14;;;;;;;26.77;17.92;;;9.90;99.90;;;;;;5072890;28;20028;-56
2022/04/22 05:00:39;;;;;;;24.40;18.27;;;9.80;99.90;;;;;;5073025;28;20039;-62
2022/04/22 05:03:05;;;;;;;24.02;18.13;;;9.90;99.90;;;;;;5073623;28;20512;-56
2022/04/22 05:05:31;;;;;;;24.60;18.73;;;9.90;99.90;;;;;;5072481;28;20036;-55
2022/04/22 05:07:59;;;;;;;25.45;18.48;;;9.90;99.90;;;;;;5072922;28;20024;-56
2022/04/22 05:10:27;;;;;;;23.95;18.00;;;9.90;99.90;;;;;;5072247;28;20063;-59
2022/04/22 05:12:53;;;;;;;28.05;18.90;;;9.90;99.90;;;;;;5071385;28;20113;-56
2022/04/22 05:15:22;;;;;;;26.52;19.52;;;9.90;99.90;;;;;;5074042;28;20035;-55
2022/04/22 05:17:47;;;;;;;35.92;20.15;;;9.90;99.90;;;;;;5075201;28;20039;-55
2022/04/22 05:20:18;;;;;;;31.00;20.20;;;9.90;99.90;;;;;;5074748;28;20029;-55
2022/04/22 05:22:44;;;;;;;24.83;19.27;;;10.00;99.90;;;;;;5075027;28;20029;-55
2022/04/22 05:25:12;;;;;;;26.00;20.02;;;10.00;99.90;;;;;;5074788;28;20047;-55
2022/04/22 05:27:38;;;;;;;30.52;21.52;;;10.10;99.90;;;;;;5075017;28;20017;-60
2022/04/22 05:32:50;;;;;;;28.92;19.95;;;10.10;99.90;;;;;;5075217;28;20036;-56
2022/04/22 05:35:18;;;;;;;31.98;20.73;;;10.00;99.90;;;;;;5074361;28;20028;-56
2022/04/22 05:37:56;;;;;;;29.35;21.20;;;10.10;99.90;;;;;;5075964;28;20505;-56
2022/04/22 05:40:48;;;;;;;29.17;21.77;;;10.10;99.90;;;;;;5074464;28;20515;-56
2022/04/22 05:43:14;;;;;;;27.83;20.42;;;10.10;99.90;;;;;;5073976;28;20040;-55
2022/04/22 05:45:43;;;;;;;28.60;20.40;;;10.10;99.90;;;;;;5074477;28;20016;-56
2022/04/22 05:48:09;;;;;;;33.78;21.02;;;10.20;99.90;;;;;;5074217;28;20017;-56
2022/04/22 05:50:35;;;;;;;30.92;21.75;;;10.30;99.90;;;;;;5074205;28;20124;-55
2022/04/22 05:53:00;;;;;;;32.03;21.70;;;10.30;99.90;;;;;;5074253;28;20094;-55
2022/04/22 05:55:28;;;;;;;28.55;21.60;;;10.30;99.90;;;;;;5073376;28;20039;-55
2022/04/22 05:57:54;;;;;;;35.20;28.65;;;10.30;99.90;;;;;;5075015;28;20262;-56
2022/04/22 06:00:23;;;;;;;42.55;21.80;;;10.40;99.90;;;;;;5072701;28;20020;-55
2022/04/22 06:02:52;;;;;;;26.88;19.60;;;10.50;99.90;;;;;;5068786;28;20021;-55
2022/04/22 06:05:20;;;;;;;34.50;20.38;;;10.60;99.90;;;;;;5065975;28;20027;-55
2022/04/22 06:07:46;;;;;;;27.85;20.05;;;10.50;99.90;;;;;;5069036;28;20059;-55
2022/04/22 06:13:11;;;;;;;29.60;19.17;;;10.70;99.90;;;;;;5030786;28;20036;-55
2022/04/22 06:15:37;;;;;;;27.63;19.58;;;10.80;99.90;;;;;;5062734;28;20040;-55
2022/04/22 06:18:03;;;;;;;24.25;17.80;;;10.90;99.90;;;;;;5066715;28;20150;-55
2022/04/22 06:20:29;;;;;;;26.48;18.10;;;11.00;99.90;;;;;;5060386;28;20033;-55
2022/04/22 06:22:55;;;;;;;25.55;18.23;;;11.20;99.90;;;;;;5057879;28;20020;-55
2022/04/22 06:25:21;;;;;;;30.17;19.42;;;11.30;99.90;;;;;;5063032;28;20056;-55
2022/04/22 06:27:47;;;;;;;23.52;18.50;;;11.30;99.90;;;;;;5064749;28;20017;-54
2022/04/22 06:30:17;;;;;;;24.45;18.15;;;11.30;99.90;;;;;;5057795;28;20576;-55
2022/04/22 06:32:48;;;;;;;25.35;17.83;;;11.40;99.90;;;;;;5058615;28;20481;-55
2022/04/22 06:35:15;;;;;;;29.83;16.80;;;11.50;99.90;;;;;;5065253;28;20458;-55
2022/04/22 06:37:51;;;;;;;24.65;17.92;;;11.60;99.90;;;;;;5056561;28;20029;-54
2022/04/22 06:45:49;;;;;;;25.20;17.35;;;11.50;99.90;;;;;;5063913;28;20031;-55
2022/04/22 06:48:19;;;;;;;22.63;18.20;;;11.70;99.90;;;;;;5064491;28;20078;-54
2022/04/22 06:50:47;;;;;;;25.77;17.88;;;11.60;99.90;;;;;;5058576;28;20025;-54
2022/04/22 06:53:14;;;;;;;22.27;17.38;;;11.60;99.90;;;;;;5064617;28;20036;-53
2022/04/22 06:55:41;;;;;;;25.63;19.48;;;11.70;99.90;;;;;;5066588;28;20893;-53
2022/04/22 06:58:11;;;;;;;22.55;17.40;;;11.80;99.90;;;;;;5063519;28;20078;-54
2022/04/22 07:00:38;;;;;;;23.80;17.75;;;11.80;99.90;;;;;;5058428;28;20033;-54
2022/04/22 07:03:05;;;;;;;22.23;16.02;;;11.90;99.90;;;;;;5053276;28;20031;-54
2022/04/22 07:05:35;;;;;;;21.92;17.23;;;12.10;99.90;;;;;;5061404;28;20024;-53
2022/04/22 07:08:02;;;;;;;25.23;17.10;;;12.00;99.90;;;;;;5063804;28;20031;-54
2022/04/22 07:10:30;;;;;;;25.10;17.70;;;12.10;99.90;;;;;;5055627;28;20548;-54
2022/04/22 07:12:57;;;;;;;20.17;15.95;;;12.30;99.90;;;;;;5060165;28;20037;-54
2022/04/22 07:15:24;;;;;;;22.85;16.40;;;12.50;99.90;;;;;;5062556;28;20021;-54
2022/04/22 07:17:50;;;;;;;21.23;15.57;;;13.00;99.90;;;;;;5059431;28;20036;-54
2022/04/22 07:20:16;;;;;;;18.75;13.73;;;13.80;99.90;;;;;;5059640;28;20025;-54
2022/04/22 07:22:45;;;;;;;17.98;13.18;;;14.90;99.90;;;;;;5063556;28;20123;-54
2022/04/22 07:25:12;;;;;;;16.85;13.48;;;15.80;99.90;;;;;;5058091;28;20405;-54
2022/04/22 07:27:40;;;;;;;16.75;12.45;;;16.40;99.90;;;;;;5062884;28;20036;-53
2022/04/22 07:30:09;;;;;;;14.07;12.57;;;17.10;99.90;;;;;;5061295;28;20078;-55
2022/04/22 07:32:38;;;;;;;19.02;12.80;;;17.60;99.90;;;;;;5061053;28;20028;-55
2022/04/22 07:35:05;;;;;;;16.67;12.38;;;17.80;98.50;;;;;;5062793;28;20078;-55
2022/04/22 07:37:31;;;;;;;16.38;12.40;;;17.90;98.50;;;;;;5064678;28;20056;-55
2022/04/22 07:39:57;;;;;;;16.77;13.07;;;18.10;97.30;;;;;;5062337;28;20079;-55
2022/04/22 07:42:22;;;;;;;17.25;13.60;;;18.50;96.60;;;;;;5062882;28;20033;-55
2022/04/22 07:47:36;;;;;;;16.60;13.95;;;17.90;97.50;;;;;;5060340;28;20047;-55
2022/04/22 07:50:05;;;;;;;15.27;13.68;;;17.80;96.60;;;;;;5062826;28;20025;-55
2022/04/22 07:52:38;;;;;;;21.63;14.20;;;18.00;96.70;;;;;;5062825;28;20110;-55
2022/04/22 07:55:04;;;;;;;22.20;13.93;;;18.10;96.30;;;;;;5061521;28;20486;-55
2022/04/22 07:57:30;;;;;;;17.13;12.43;;;18.10;96.40;;;;;;5059500;28;20471;-55
2022/04/22 07:59:57;;;;;;;18.58;13.43;;;18.30;96.70;;;;;;5056534;28;20028;-55
2022/04/22 08:02:23;;;;;;;19.05;12.35;;;18.60;95.60;;;;;;5057235;28;20033;-55
2022/04/22 08:04:50;;;;;;;16.58;13.52;;;18.80;95.10;;;;;;5056027;28;20532;-55
2022/04/22 08:07:16;;;;;;;17.38;13.02;;;19.00;94.40;;;;;;5058213;28;20037;-56
2022/04/22 08:09:44;;;;;;;16.55;13.70;;;18.70;93.90;;;;;;5058365;28;20028;-56
2022/04/22 08:12:12;;;;;;;18.75;13.70;;;17.80;95.60;;;;;;5055175;28;20414;-56
2022/04/22 08:14:38;;;;;;;21.58;14.88;;;17.40;96.10;;;;;;5060578;28;20094;-56
2022/04/22 08:17:03;;;;;;;17.65;14.00;;;17.20;97.10;;;;;;5059856;28;20032;-56
2022/04/22 08:19:29;;;;;;;24.02;14.55;;;17.60;96.60;;;;;;5059534;28;20032;-56
2022/04/22 08:21:55;;;;;;;25.63;14.57;;;17.50;96.30;;;;;;5058782;28;20036;-56
2022/04/22 08:24:20;;;;;;;17.48;14.60;;;17.40;97.00;;;;;;5056862;28;20055;-56
2022/04/22 08:26:46;;;;;;;20.17;15.95;;;16.80;97.60;;;;;;5057291;28;20355;-55
2022/04/22 08:29:12;;;;;;;21.30;15.88;;;16.20;98.80;;;;;;5060055;28;20025;-55
2022/04/22 08:31:37;;;;;;;22.02;17.17;;;15.90;99.90;;;;;;5059499;28;20025;-55
2022/04/22 08:34:03;;;;;;;20.48;16.25;;;15.30;99.90;;;;;;5061706;28;20045;-56
2022/04/22 08:36:30;;;;;;;23.25;17.13;;;15.10;99.90;;;;;;5059210;28;20017;-56
2022/04/22 08:38:59;;;;;;;21.67;17.23;;;15.40;99.90;;;;;;5059780;28;20073;-55
2022/04/22 08:41:31;;;;;;;18.95;15.52;;;16.10;99.90;;;;;;5062239;28;20039;-55
2022/04/22 08:43:58;;;;;;;17.60;15.53;;;17.00;99.00;;;;;;5064345;28;20180;-55
2022/04/22 08:51:56;;;;;;;19.63;16.42;;;17.60;95.20;;;;;;5061807;28;20094;-55
2022/04/22 08:54:22;;;;;;;19.88;15.65;;;17.50;95.90;;;;;;5059819;28;20485;-55
2022/04/22 08:56:50;;;;;;;22.17;16.58;;;18.00;95.10;;;;;;5057616;28;20059;-55
2022/04/22 08:59:16;;;;;;;23.83;15.93;;;18.40;94.10;;;;;;5060183;28;20036;-56
2022/04/22 09:01:42;;;;;;;21.33;16.13;;;18.40;94.20;;;;;;5060699;28;20047;-56
2022/04/22 09:04:07;;;;;;;22.00;15.80;;;18.70;94.00;;;;;;5060045;28;20107;-56
2022/04/22 09:06:34;;;;;;;18.95;16.48;;;19.20;93.90;;;;;;5057898;28;20405;-55
2022/04/22 09:09:00;;;;;;;18.85;15.63;;;19.20;92.60;;;;;;5065305;28;20044;-55
2022/04/22 09:11:29;;;;;;;19.77;15.75;;;19.00;92.90;;;;;;5058896;28;20032;-56
2022/04/22 09:13:54;;;;;;;17.17;15.02;;;18.60;93.30;;;;;;5060274;28;20067;-55
2022/04/22 09:16:22;;;;;;;20.55;15.10;;;18.20;94.30;;;;;;5057884;28;20023;-55
2022/04/22 09:18:59;;;;;;;20.80;15.82;;;18.70;94.20;;;;;;5058053;28;20095;-55
2022/04/22 09:21:25;;;;;;;20.80;15.30;;;18.90;93.60;;;;;;5054937;28;20074;-56
2022/04/22 09:23:53;;;;;;;22.05;16.20;;;18.80;93.40;;;;;;5056361;28;20477;-56
2022/04/22 09:26:26;;;;;;;18.83;15.32;;;18.60;94.20;;;;;;5058189;28;20025;-56
2022/04/22 09:28:59;;;;;;;21.10;15.73;;;18.60;93.40;;;;;;5056788;28;20115;-56
2022/04/22 09:31:27;;;;;;;20.17;15.73;;;18.50;93.80;;;;;;5058281;28;20489;-56
2022/04/22 09:33:53;;;;;;;17.98;14.57;;;19.10;93.90;;;;;;5055641;28;20044;-55
2022/04/22 09:44:57;;;;;;;17.23;13.20;;;19.50;89.00;;;;;;5055592;28;20447;-55
2022/04/22 09:47:28;;;;;;;16.75;12.88;;;19.30;90.60;;;;;;5053690;28;20070;-55
2022/04/22 09:49:54;;;;;;;16.48;13.23;;;19.60;91.20;;;;;;5055124;28;20033;-54
2022/04/22 09:52:27;;;;;;;25.48;13.98;;;20.40;88.40;;;;;;5055902;28;20035;-55
2022/04/22 09:55:07;;;;;;;17.35;12.77;;;20.70;86.10;;;;;;5054420;28;20075;-55
2022/04/22 09:57:52;;;;;;;14.43;12.43;;;21.00;85.80;;;;;;5054780;28;20024;-55
2022/04/22 10:00:18;;;;;;;18.02;12.77;;;21.00;84.20;;;;;;5053304;28;20493;-56
2022/04/22 10:02:47;;;;;;;17.10;12.43;;;21.20;85.70;;;;;;5065044;28;20582;-56
2022/04/22 10:05:13;;;;;;;16.30;12.07;;;21.40;83.40;;;;;;5063758;28;20533;-56
2022/04/22 10:07:42;;;;;;;14.48;12.60;;;21.00;83.30;;;;;;5063330;28;20024;-56
2022/04/22 10:10:10;;;;;;;17.38;12.48;;;20.60;85.40;;;;;;5066000;28;20111;-55
2022/04/22 10:12:37;;;;;;;14.80;11.77;;;20.30;83.60;;;;;;5064222;28;20474;-57
2022/04/22 10:15:05;;;;;;;15.02;13.18;;;20.00;84.70;;;;;;5057203;28;20033;-56
2022/04/22 10:17:34;;;;;;;14.57;11.77;;;20.30;84.00;;;;;;5058043;28;20425;-56
2022/04/22 10:20:01;;;;;;;11.93;10.73;;;20.70;82.50;;;;;;5059366;28;20025;-56
2022/04/22 10:22:31;;;;;;;13.40;11.80;;;21.30;80.90;;;;;;5057387;28;20021;-56
2022/04/22 10:24:58;;;;;;;21.80;11.93;;;21.10;80.50;;;;;;5055533;28;20024;-57
2022/04/22 10:27:24;;;;;;;18.45;12.00;;;21.30;82.70;;;;;;5056497;28;20104;-58
2022/04/22 10:29:52;;;;;;;18.20;10.93;;;21.50;81.50;;;;;;5062392;28;20154;-59
2022/04/22 10:32:18;;;;;;;19.17;12.88;;;21.70;81.90;;;;;;5060100;28;20044;-57
2022/04/22 10:34:45;;;;;;;13.52;11.65;;;21.00;80.50;;;;;;5060646;28;20382;-57
2022/04/22 10:37:26;;;;;;;23.63;12.35;;;20.20;84.30;;;;;;5064393;28;20074;-57
2022/04/22 10:39:54;;;;;;;18.02;13.05;;;19.70;85.00;;;;;;5061682;28;20028;-56
2022/04/22 10:42:28;;;;;;;13.95;12.45;;;19.50;86.40;;;;;;5061054;28;20021;-57
2022/04/22 10:47:41;;;;;;;18.13;12.45;;;18.70;88.00;;;;;;5062350;28;20496;-57
2022/04/22 10:50:26;;;;;;;17.23;10.85;;;18.70;88.30;;;;;;5061561;28;20179;-57
2022/04/22 10:53:03;;;;;;;19.10;11.50;;;18.60;87.70;;;;;;5060753;28;20115;-57
2022/04/22 10:55:40;;;;;;;16.80;10.50;;;18.60;89.60;;;;;;5063209;28;20236;-57
2022/04/22 10:58:26;;;;;;;18.05;9.70;;;18.60;86.80;;;;;;5063968;28;20061;-57
2022/04/22 11:00:59;;;;;;;12.48;8.60;;;18.50;88.70;;;;;;5059908;28;20501;-57
2022/04/22 11:03:31;;;;;;;18.65;9.40;;;18.40;87.40;;;;;;5047092;28;20028;-56
2022/04/22 11:06:07;;;;;;;14.60;9.50;;;18.30;86.70;;;;;;5063826;28;20112;-56
2022/04/22 11:08:39;;;;;;;12.02;9.27;;;18.10;86.70;;;;;;5061512;28;20324;-56
2022/04/22 11:11:18;;;;;;;9.97;8.93;;;17.80;87.00;;;;;;5057369;28;20072;-56
2022/04/22 11:13:50;;;;;;;11.38;8.98;;;17.50;88.70;;;;;;5061405;28;20021;-56
2022/04/22 11:16:26;;;;;;;15.80;9.68;;;17.30;89.80;;;;;;5059002;28;20051;-56
2022/04/22 11:19:22;;;;;;;11.90;9.45;;;16.90;89.90;;;;;;5061722;28;20170;-56
2022/04/22 11:21:53;;;;;;;11.57;8.45;;;16.90;90.40;;;;;;5064647;28;20113;-56
2022/04/22 11:24:21;;;;;;;11.93;7.82;;;16.90;90.80;;;;;;5065720;28;20086;-56
2022/04/22 11:26:47;;;;;;;16.15;8.57;;;17.00;90.10;;;;;;5044478;28;20481;-55
2022/04/22 11:29:14;;;;;;;12.60;8.40;;;17.10;89.80;;;;;;5059154;28;20459;-56
2022/04/22 11:31:45;;;;;;;18.80;8.85;;;17.10;90.20;;;;;;5062410;28;20032;-56
2022/04/22 11:34:14;;;;;;;10.40;8.50;;;17.10;90.30;;;;;;5065616;28;20094;-55
2022/04/22 11:36:47;;;;;;;13.95;9.35;;;17.20;90.60;;;;;;5063126;28;20032;-55
2022/04/22 11:39:15;;;;;;;11.20;9.52;;;17.10;90.20;;;;;;5066157;28;20416;-55
2022/04/22 11:42:01;;;;;;;14.52;9.82;;;17.10;90.30;;;;;;5062236;28;20048;-55
2022/04/22 11:44:27;;;;;;;12.02;10.73;;;17.10;90.70;;;;;;5058290;28;20016;-55
2022/04/22 11:46:53;;;;;;;12.77;10.95;;;17.00;90.90;;;;;;5056188;28;20042;-55
2022/04/22 11:49:20;;;;;;;14.77;11.07;;;16.80;91.40;;;;;;5060150;28;20021;-55
2022/04/22 11:51:52;;;;;;;14.30;11.13;;;16.70;92.10;;;;;;5056890;28;20111;-55
2022/04/22 11:54:22;;;;;;;13.27;11.05;;;16.90;92.30;;;;;;5058296;28;20054;-56
2022/04/22 11:56:48;;;;;;;15.45;11.85;;;17.10;91.50;;;;;;5055420;28;20032;-56
2022/04/22 11:59:14;;;;;;;16.95;12.57;;;17.20;91.60;;;;;;5058394;28;20043;-56
2022/04/22 12:05:32;;;;;;;15.05;13.35;;;17.10;91.60;;;;;;5063890;28;20124;-56
2022/04/22 12:10:12;;;;;;;16.75;12.65;;;17.20;91.10;;;;;;5066501;28;20122;-55
2022/04/22 12:12:50;;;;;;;16.95;12.38;;;16.90;91.00;;;;;;5064756;28;20020;-55
2022/04/22 12:15:21;;;;;;;12.68;11.38;;;16.80;91.60;;;;;;5058236;28;20119;-55
2022/04/22 12:17:47;;;;;;;14.13;10.15;;;16.50;91.40;;;;;;5065921;28;20032;-56
2022/04/22 12:20:13;;;;;;;16.05;10.95;;;16.50;91.30;;;;;;5061989;28;20544;-56
2022/04/22 12:22:39;;;;;;;14.23;10.98;;;16.50;91.90;;;;;;5064330;28;20028;-56
2022/04/22 12:25:16;;;;;;;12.07;10.57;;;16.60;91.60;;;;;;5063936;28;20477;-56
2022/04/22 12:27:43;;;;;;;16.75;10.57;;;16.70;91.50;;;;;;5059986;28;20059;-56
2022/04/22 12:30:14;;;;;;;12.35;10.40;;;16.80;91.60;;;;;;5062892;28;20039;-56
2022/04/22 12:32:41;;;;;;;14.18;10.85;;;16.70;91.50;;;;;;5061381;28;20060;-56
2022/04/22 12:35:10;;;;;;;11.98;9.75;;;16.70;91.30;;;;;;5064637;28;20028;-55
2022/04/22 12:37:36;;;;;;;16.55;10.85;;;17.20;90.80;;;;;;5062617;28;20467;-55
2022/04/22 12:40:10;;;;;;;14.73;9.98;;;17.20;90.50;;;;;;5064293;28;20124;-55
2022/04/22 12:42:36;;;;;;;13.65;10.45;;;17.50;90.40;;;;;;5067431;28;20492;-55
2022/04/22 12:54:04;;;;;;;11.50;10.10;;;17.50;90.80;;;;;;5061901;28;20450;-56
2022/04/22 12:56:29;;;;;;;14.15;11.23;;;17.40;91.00;;;;;;5065180;28;20021;-55
2022/04/22 12:58:59;;;;;;;21.42;11.10;;;17.20;91.00;;;;;;5062947;28;20313;-55
2022/04/22 13:01:30;;;;;;;16.98;10.95;;;17.50;91.40;;;;;;5062751;28;20120;-55
2022/04/22 13:03:59;;;;;;;13.75;10.93;;;17.80;90.80;;;;;;5054440;28;20406;-55
2022/04/22 13:06:49;;;;;;;12.98;11.35;;;17.70;90.50;;;;;;5058564;28;20094;-56
2022/04/22 13:09:20;;;;;;;16.27;12.00;;;17.90;90.70;;;;;;5062490;28;20519;-56
2022/04/22 13:11:47;;;;;;;21.90;12.07;;;17.90;90.50;;;;;;5064648;28;20030;-55
2022/04/22 13:14:13;;;;;;;16.98;11.57;;;18.20;90.20;;;;;;5058997;28;20025;-56
2022/04/22 13:16:39;;;;;;;15.65;11.77;;;18.20;89.70;;;;;;5063441;28;20060;-56
2022/04/22 13:19:05;;;;;;;16.92;11.52;;;18.20;90.10;;;;;;5062753;28;20110;-56
2022/04/22 13:21:30;;;;;;;13.85;11.27;;;18.00;90.60;;;;;;5065787;28;20390;-55
2022/04/22 13:23:56;;;;;;;12.52;11.05;;;17.70;90.10;;;;;;5063700;28;20551;-55
2022/04/22 13:26:23;;;;;;;15.52;11.50;;;17.70;89.40;;;;;;5062040;28;20031;-56
2022/04/22 13:28:49;;;;;;;16.42;11.77;;;17.30;90.20;;;;;;5064763;28;20027;-56
2022/04/22 13:31:16;;;;;;;16.83;10.75;;;17.10;90.00;;;;;;5065707;28;20432;-56
2022/04/22 13:33:41;;;;;;;17.50;11.23;;;17.10;89.90;;;;;;5061685;28;21419;-56
2022/04/22 13:36:10;;;;;;;13.65;10.90;;;17.00;89.70;;;;;;5061581;28;20035;-56
2022/04/22 13:38:36;;;;;;;14.73;10.93;;;17.30;89.50;;;;;;5070098;28;20045;-56
2022/04/22 13:41:02;;;;;;;19.15;11.00;;;17.50;88.80;;;;;;5067937;28;20387;-56
2022/04/22 13:43:31;;;;;;;19.73;10.77;;;17.50;90.10;;;;;;5066596;28;20104;-56